createdAt,value
2023-04-11T00:05:50.422Z,9.4
2023-04-11T00:11:50.397Z,9.6
2023-04-11T00:17:50.429Z,9.4
2023-04-11T00:23:50.375Z,9.6
2023-04-11T00:30:00.734Z,9.6
2023-04-11T00:35:50.532Z,9.5
2023-04-11T00:41:50.369Z,9.6
2023-04-11T00:47:50.423Z,9.6
2023-04-11T00:53:50.417Z,9.6
2023-04-11T00:59:50.420Z,9.6
2023-04-11T01:05:50.440Z,9.5
2023-04-11T01:11:50.366Z,9.7
2023-04-11T01:17:50.399Z,9.9
2023-04-11T01:23:50.464Z,9.9
2023-04-11T01:29:50.382Z,9.7
2023-04-11T01:35:50.427Z,9.6
2023-04-11T01:41:50.370Z,9.6
2023-04-11T01:47:50.998Z,9.6
2023-04-11T01:53:50.405Z,9.5
2023-04-11T01:59:50.375Z,9.6
2023-04-11T02:05:50.363Z,9.9
2023-04-11T02:11:50.358Z,9.7
2023-04-11T02:17:50.422Z,9.6
2023-04-11T02:23:50.371Z,9.2
2023-04-11T02:29:50.390Z,9
2023-04-11T02:35:50.424Z,9
2023-04-11T02:41:50.386Z,9
2023-04-11T02:47:50.417Z,8.8
2023-04-11T02:53:50.408Z,8.7
2023-04-11T02:59:50.373Z,8.8
2023-04-11T03:05:50.371Z,9
2023-04-11T03:11:50.366Z,9.1
2023-04-11T03:17:50.516Z,9
2023-04-11T03:23:50.361Z,9.1
2023-04-11T03:29:50.359Z,8.7
2023-04-11T03:35:50.433Z,8.6
2023-04-11T03:41:50.358Z,8.4
2023-04-11T03:47:50.393Z,8.1
2023-04-11T03:53:50.367Z,8.2
2023-04-11T03:59:50.368Z,8.1
2023-04-11T04:06:00.662Z,8.3
2023-04-11T04:11:50.369Z,8.3
2023-04-11T04:17:50.396Z,8.4
2023-04-11T04:23:50.374Z,8.4
2023-04-11T04:29:53.228Z,8.1
2023-04-11T04:35:50.401Z,8.1
2023-04-11T04:41:50.373Z,8.1
2023-04-11T04:47:50.375Z,8.1
2023-04-11T04:53:50.358Z,8.3
2023-04-11T04:59:50.364Z,8.2
2023-04-11T05:05:50.360Z,8.2
2023-04-11T05:11:50.383Z,8.3
2023-04-11T05:17:50.373Z,8.3
2023-04-11T05:23:50.381Z,8.6
2023-04-11T05:29:50.382Z,8.5
2023-04-11T05:35:50.381Z,8.5
2023-04-11T05:41:50.372Z,8.6
2023-04-11T05:47:50.380Z,8.5
2023-04-11T05:53:50.362Z,8.4
2023-04-11T05:59:50.370Z,8.5
2023-04-11T06:05:50.387Z,8.4
2023-04-11T06:11:50.370Z,8.4
2023-04-11T06:17:50.387Z,8.4
2023-04-11T06:23:50.866Z,8.4
2023-04-11T06:29:50.349Z,8.5
2023-04-11T06:35:50.418Z,8.7
2023-04-11T06:41:50.376Z,8.7
2023-04-11T06:47:50.414Z,8.5
2023-04-11T06:53:50.371Z,8.8
2023-04-11T06:59:50.427Z,9.1
2023-04-11T07:05:50.434Z,9.1
2023-04-11T07:11:50.366Z,9.3
2023-04-11T07:17:52.692Z,9.3
2023-04-11T07:23:50.357Z,9.1
2023-04-11T07:29:50.362Z,9
2023-04-11T07:35:50.374Z,9.2
2023-04-11T07:41:50.357Z,11.7
2023-04-11T07:47:50.504Z,12.1
2023-04-11T07:53:50.359Z,11.1
2023-04-11T07:59:50.377Z,10.8
2023-04-11T08:05:50.345Z,12.3
2023-04-11T08:11:50.368Z,11.7
2023-04-11T08:17:50.373Z,11.7
2023-04-11T08:23:50.379Z,12.2
2023-04-11T08:29:50.385Z,12.5
2023-04-11T08:35:50.437Z,11.3
2023-04-11T08:41:50.366Z,12.5
2023-04-11T08:47:50.417Z,11.8
2023-04-11T08:53:50.369Z,11.4
2023-04-11T08:59:50.376Z,13.9
2023-04-11T09:05:50.385Z,13.2
2023-04-11T09:11:50.476Z,12.8
2023-04-11T09:17:50.378Z,13.6
2023-04-11T09:23:50.379Z,17.6
2023-04-11T09:29:50.385Z,14.8
2023-04-11T09:35:50.411Z,15.9
2023-04-11T09:41:50.411Z,17.1
2023-04-11T09:47:50.393Z,16.8
2023-04-11T09:53:50.386Z,17.8
2023-04-11T09:59:50.376Z,15.5
2023-04-11T10:05:50.375Z,14.6
2023-04-11T10:11:50.375Z,17.5
2023-04-11T10:17:50.449Z,17.6
2023-04-11T10:23:50.396Z,15
2023-04-11T10:29:51.769Z,16.1
2023-04-11T10:35:50.419Z,14.3
2023-04-11T10:41:50.382Z,17.4
2023-04-11T10:47:50.399Z,19.7
2023-04-11T10:53:50.373Z,19.3
2023-04-11T10:59:50.381Z,18.9
2023-04-11T11:05:50.381Z,17.4
2023-04-11T11:11:50.362Z,17.8
2023-04-11T11:17:50.438Z,18.4
2023-04-11T11:23:50.596Z,16.6
2023-04-11T11:29:50.373Z,15.8
2023-04-11T11:35:50.381Z,14.6
2023-04-11T11:41:50.381Z,15.2
2023-04-11T11:47:50.426Z,15.4
2023-04-11T11:53:50.384Z,14.6
2023-04-11T11:59:50.378Z,15.1
2023-04-11T12:05:50.378Z,15.2
2023-04-11T12:11:50.384Z,14
2023-04-11T12:17:50.399Z,14.9
2023-04-11T12:23:50.402Z,15.3
2023-04-11T12:29:50.369Z,15.7
2023-04-11T12:35:50.380Z,15.8
2023-04-11T12:41:50.397Z,15.9
2023-04-11T12:47:50.450Z,14.5
2023-04-11T12:53:50.377Z,14.7
2023-04-11T12:59:50.394Z,15.4
2023-04-11T13:05:50.387Z,14.5
2023-04-11T13:11:50.394Z,13.7
2023-04-11T13:17:50.410Z,14.3
2023-04-11T13:23:50.384Z,15.6
2023-04-11T13:29:50.399Z,16
2023-04-11T13:35:50.435Z,15.7
2023-04-11T13:41:50.411Z,15.7
2023-04-11T13:47:50.448Z,15.8
2023-04-11T13:53:50.495Z,15.1
2023-04-11T13:59:50.393Z,15.4
2023-04-11T14:05:50.398Z,14.5
2023-04-11T14:11:50.404Z,14.6
2023-04-11T14:17:50.436Z,15.3
2023-04-11T14:23:50.409Z,14.9
2023-04-11T14:29:50.394Z,14.5
2023-04-11T14:35:50.401Z,14.3
2023-04-11T14:41:50.426Z,14.4
2023-04-11T14:47:50.395Z,14.2
2023-04-11T14:53:50.409Z,14.2
2023-04-11T14:59:50.398Z,14.1
2023-04-11T15:05:50.396Z,13.5
2023-04-11T15:11:50.384Z,13.2
2023-04-11T15:17:50.466Z,13.1
2023-04-11T15:23:50.380Z,13.8
2023-04-11T15:29:50.398Z,13.6
2023-04-11T15:35:50.396Z,13.6
2023-04-11T15:41:50.395Z,13.5
2023-04-11T15:47:50.433Z,13.5
2023-04-11T15:53:50.398Z,13.4
2023-04-11T15:59:50.390Z,13.5
2023-04-11T16:05:50.386Z,13.5
2023-04-11T16:11:50.402Z,13.8
2023-04-11T16:17:50.424Z,14.1
2023-04-11T16:23:50.405Z,13.6
2023-04-11T16:30:00.689Z,13
2023-04-11T16:35:50.436Z,12.6
2023-04-11T16:41:50.436Z,12
2023-04-11T16:47:50.405Z,12.1
2023-04-11T16:53:50.393Z,11.8
2023-04-11T16:59:50.402Z,11.9
2023-04-11T17:05:50.414Z,12
2023-04-11T17:11:50.404Z,12
2023-04-11T17:17:50.465Z,12.4
2023-04-11T17:23:50.386Z,12.2
2023-04-11T17:29:50.389Z,12.3
2023-04-11T17:35:50.467Z,12.3
2023-04-11T17:41:50.411Z,12.2
2023-04-11T17:47:50.459Z,12
2023-04-11T17:54:00.758Z,11.7
2023-04-11T17:59:50.429Z,11.7
2023-04-11T18:05:50.395Z,11.6
2023-04-11T18:11:50.407Z,11.5
2023-04-11T18:17:50.398Z,11.4
2023-04-11T18:23:50.447Z,11.1
2023-04-11T18:29:50.410Z,10.9
2023-04-11T18:35:50.445Z,10.7
2023-04-11T18:42:00.693Z,10.6
2023-04-11T18:47:50.460Z,10.6
2023-04-11T18:53:50.394Z,10.6
2023-04-11T18:59:51.028Z,10.6
2023-04-11T19:05:50.679Z,10.5
2023-04-11T19:11:50.427Z,10.3
2023-04-11T19:17:50.590Z,10.4
2023-04-11T19:23:50.461Z,10.4
2023-04-11T19:29:50.397Z,10.2
2023-04-11T19:35:50.497Z,10.3
2023-04-11T19:41:50.395Z,10.1
2023-04-11T19:47:50.425Z,10.2
2023-04-11T19:53:50.421Z,10.2
2023-04-11T19:59:50.415Z,9.9
2023-04-11T20:05:50.408Z,10
2023-04-11T20:11:50.398Z,9.9
2023-04-11T20:17:50.428Z,10
2023-04-11T20:23:50.395Z,10
2023-04-11T20:29:50.419Z,9.9
2023-04-11T20:35:50.480Z,9.9
2023-04-11T20:41:50.403Z,9.8
2023-04-11T20:47:50.578Z,9.8
2023-04-11T20:53:50.563Z,9.7
2023-04-11T20:59:50.409Z,9.6
2023-04-11T21:05:50.405Z,9.6
2023-04-11T21:11:50.394Z,9.6
2023-04-11T21:17:50.617Z,9.7
2023-04-11T21:23:50.411Z,9.6
2023-04-11T21:29:50.383Z,9.6
2023-04-11T21:35:50.420Z,9.6
2023-04-11T21:41:50.405Z,9.7
2023-04-11T21:47:50.415Z,9.6
2023-04-11T21:53:50.407Z,9.5
2023-04-11T21:59:50.400Z,9.3
2023-04-11T22:05:50.544Z,9.3
2023-04-11T22:11:50.400Z,9.3
2023-04-11T22:17:50.820Z,9.3
2023-04-11T22:23:50.404Z,9.3
2023-04-11T22:29:50.402Z,9.1
2023-04-11T22:35:50.506Z,9
2023-04-11T22:41:50.431Z,9
2023-04-11T22:47:50.414Z,8.9
2023-04-11T22:53:50.404Z,9
2023-04-11T22:59:50.413Z,9
2023-04-11T23:05:50.410Z,9
2023-04-11T23:11:50.410Z,9.1
2023-04-11T23:17:50.399Z,9.1
2023-04-11T23:23:50.394Z,9.1
2023-04-11T23:29:50.410Z,8.8
2023-04-11T23:35:50.407Z,8.9
2023-04-11T23:41:50.395Z,8.8
2023-04-11T23:47:50.423Z,8.8
2023-04-11T23:53:50.405Z,8.7
2023-04-11T23:59:50.391Z,8.8
